^^
Meteo Knjazevac Station Historical Data
Daily Summary for March 5, 2021 Units:  Both    English   Metric
Daily Weekly Monthly Yearly Custom
  High: Low: Average:
Temperature: 85.8 °F /  29.9 °C 58.8 °F /  14.9 °C 71.2 °F /  21.8 °C
Dew Point: 70.7 °F /  21.5 °C 55.8 °F /  13.2 °C 62.1 °F /  16.7 °C
Humidity: 93% 52% 75%
Wind Speed: 8mph /  12.9km/h - 2.1mph /  3.4km/h
Wind Gust: 13mph /  20.9km/h - -
Wind- - SW
Pressure: 29.95 in /  1014.1 hPa 29.86 in /  1011.1 hPa -
Precipitation: 0.00 in /  0 mm    
Historical Graphs
 
 
Tabular Data for March 5, 2021
Time Temperature Dew Point Pressure Wind Wind Speed Wind Gust Humidity Rainfall Rate (Hourly) solar Conditions
00:00 61.7 °F /  16.5 °C 57.1 °F /  13.9 °C 29.95in /  1014.1hPa WSW 1mph /  1.6km/h 5mph /  8km/h 85% 0.00in /  0mm 0 W/m2
00:10 61.4 °F /  16.3 °C 56.9 °F /  13.8 °C 29.95in /  1014.1hPa WSW 2mph /  3.2km/h 5mph /  8km/h 85% 0.00in /  0mm 0 W/m2
00:20 61 °F /  16.1 °C 56.4 °F /  13.6 °C 29.95in /  1014.1hPa West 2mph /  3.2km/h 5mph /  8km/h 85% 0.00in /  0mm 0 W/m2
00:30 60.8 °F /  16 °C 56.6 °F /  13.7 °C 29.95in /  1014.1hPa WSW 2mph /  3.2km/h 5mph /  8km/h 86% 0.00in /  0mm 0 W/m2
00:40 60.3 °F /  15.7 °C 56.1 °F /  13.4 °C 29.95in /  1014.1hPa WSW 2mph /  3.2km/h 5mph /  8km/h 86% 0.00in /  0mm 0 W/m2
00:50 60.1 °F /  15.6 °C 55.9 °F /  13.3 °C 29.94in /  1013.8hPa West 2mph /  3.2km/h 5mph /  8km/h 86% 0.00in /  0mm 0 W/m2
01:00 60.1 °F /  15.6 °C 55.9 °F /  13.3 °C 29.94in /  1013.8hPa Calm   5mph /  8km/h 86% 0.00in /  0mm 0 W/m2
01:10 59.9 °F /  15.5 °C 56.3 °F /  13.5 °C 29.94in /  1013.8hPa WSW 2mph /  3.2km/h 3mph /  4.8km/h 88% 0.00in /  0mm 0 W/m2
01:20 59.9 °F /  15.5 °C 56.3 °F /  13.5 °C 29.94in /  1013.8hPa WNW 1mph /  1.6km/h 4mph /  6.4km/h 88% 0.00in /  0mm 0 W/m2
01:30 60.1 °F /  15.6 °C 56.5 °F /  13.6 °C 29.93in /  1013.4hPa WNW 1mph /  1.6km/h 3mph /  4.8km/h 88% 0.00in /  0mm 0 W/m2
01:40 59.9 °F /  15.5 °C 56.3 °F /  13.5 °C 29.93in /  1013.4hPa Calm   2mph /  3.2km/h 88% 0.00in /  0mm 0 W/m2
01:50 59.5 °F /  15.3 °C 56.3 °F /  13.5 °C 29.93in /  1013.4hPa West 1mph /  1.6km/h 2mph /  3.2km/h 89% 0.00in /  0mm 0 W/m2
02:00 59.4 °F /  15.2 °C 56.1 °F /  13.4 °C 29.93in /  1013.4hPa WNW 1mph /  1.6km/h 2mph /  3.2km/h 89% 0.00in /  0mm 0 W/m2
02:10 59 °F /  15 °C 55.8 °F /  13.2 °C 29.93in /  1013.4hPa West 2mph /  3.2km/h 3mph /  4.8km/h 89% 0.00in /  0mm 0 W/m2
02:20 58.8 °F /  14.9 °C 55.9 °F /  13.3 °C 29.93in /  1013.4hPa WNW 2mph /  3.2km/h 3mph /  4.8km/h 90% 0.00in /  0mm 0 W/m2
02:30 59 °F /  15 °C 56.1 °F /  13.4 °C 29.93in /  1013.4hPa West 2mph /  3.2km/h 5mph /  8km/h 90% 0.00in /  0mm 0 W/m2
02:40 59.2 °F /  15.1 °C 55.9 °F /  13.3 °C 29.93in /  1013.4hPa West 2mph /  3.2km/h 3mph /  4.8km/h 89% 0.00in /  0mm 0 W/m2
02:50 59.4 °F /  15.2 °C 56.1 °F /  13.4 °C 29.92in /  1013.1hPa West 2mph /  3.2km/h 3mph /  4.8km/h 89% 0.00in /  0mm 0 W/m2
03:00 59.4 °F /  15.2 °C 56.1 °F /  13.4 °C 29.92in /  1013.1hPa WSW 1mph /  1.6km/h 3mph /  4.8km/h 89% 0.00in /  0mm 0 W/m2
03:10 59.4 °F /  15.2 °C 56.1 °F /  13.4 °C 29.92in /  1013.1hPa WNW 1mph /  1.6km/h 2mph /  3.2km/h 89% 0.00in /  0mm 0 W/m2
03:20 59.5 °F /  15.3 °C 56.3 °F /  13.5 °C 29.92in /  1013.1hPa Calm   2mph /  3.2km/h 89% 0.00in /  0mm 0 W/m2
03:30 59.7 °F /  15.4 °C 56.5 °F /  13.6 °C 29.91in /  1012.8hPa Calm   1mph /  1.6km/h 89% 0.00in /  0mm 0 W/m2
03:40 59.7 °F /  15.4 °C 56.8 °F /  13.8 °C 29.91in /  1012.8hPa Calm   1mph /  1.6km/h 90% 0.00in /  0mm 0 W/m2
03:50 59.5 °F /  15.3 °C 56.6 °F /  13.7 °C 29.91in /  1012.8hPa West 1mph /  1.6km/h 2mph /  3.2km/h 90% 0.00in /  0mm 0 W/m2
04:00 59.5 °F /  15.3 °C 56.6 °F /  13.7 °C 29.91in /  1012.8hPa WNW 1mph /  1.6km/h 4mph /  6.4km/h 90% 0.00in /  0mm 0 W/m2
04:10 59.5 °F /  15.3 °C 56.6 °F /  13.7 °C 29.92in /  1013.1hPa Calm   3mph /  4.8km/h 90% 0.00in /  0mm 0 W/m2
04:20 59.5 °F /  15.3 °C 56.9 °F /  13.8 °C 29.91in /  1012.8hPa Calm   2mph /  3.2km/h 91% 0.00in /  0mm 0 W/m2
04:30 59.5 °F /  15.3 °C 56.9 °F /  13.8 °C 29.91in /  1012.8hPa Calm   1mph /  1.6km/h 91% 0.00in /  0mm 0 W/m2
04:40 59.7 °F /  15.4 °C 57.1 °F /  13.9 °C 29.91in /  1012.8hPa Calm   2mph /  3.2km/h 91% 0.00in /  0mm 0 W/m2
04:50 59.9 °F /  15.5 °C 57.3 °F /  14.1 °C 29.92in /  1013.1hPa Calm   2mph /  3.2km/h 91% 0.00in /  0mm 0 W/m2
05:00 59.9 °F /  15.5 °C 57.9 °F /  14.4 °C 29.92in /  1013.1hPa WNW 1mph /  1.6km/h 2mph /  3.2km/h 93% 0.00in /  0mm 1 W/m2
05:10 59.9 °F /  15.5 °C 57.9 °F /  14.4 °C 29.92in /  1013.1hPa West 1mph /  1.6km/h 2mph /  3.2km/h 93% 0.00in /  0mm 4 W/m2
05:20 60.1 °F /  15.6 °C 58 °F /  14.4 °C 29.92in /  1013.1hPa Calm   2mph /  3.2km/h 93% 0.00in /  0mm 8 W/m2
05:30 60.1 °F /  15.6 °C 58 °F /  14.4 °C 29.92in /  1013.1hPa WNW 1mph /  1.6km/h 3mph /  4.8km/h 93% 0.00in /  0mm 19 W/m2
05:40 60.1 °F /  15.6 °C 57.4 °F /  14.1 °C 29.92in /  1013.1hPa SW 2mph /  3.2km/h 3mph /  4.8km/h 91% 0.00in /  0mm 29 W/m2
05:50 60.4 °F /  15.8 °C 58.4 °F /  14.7 °C 29.91in /  1012.8hPa West 2mph /  3.2km/h 5mph /  8km/h 93% 0.00in /  0mm 32 W/m2
06:00 60.6 °F /  15.9 °C 57.7 °F /  14.3 °C 29.92in /  1013.1hPa NW 1mph /  1.6km/h 4mph /  6.4km/h 90% 0.00in /  0mm 41 W/m2
06:10 61 °F /  16.1 °C 58.3 °F /  14.6 °C 29.91in /  1012.8hPa NW 1mph /  1.6km/h 2mph /  3.2km/h 91% 0.00in /  0mm 42 W/m2
06:20 61.2 °F /  16.2 °C 59.1 °F /  15.1 °C 29.91in /  1012.8hPa WSW 1mph /  1.6km/h 3mph /  4.8km/h 93% 0.00in /  0mm 54 W/m2
06:30 61.3 °F /  16.3 °C 59.3 °F /  15.2 °C 29.91in /  1012.8hPa WSW 2mph /  3.2km/h 3mph /  4.8km/h 93% 0.00in /  0mm 56 W/m2
06:40 61.5 °F /  16.4 °C 58.9 °F /  14.9 °C 29.91in /  1012.8hPa SW 2mph /  3.2km/h 3mph /  4.8km/h 91% 0.00in /  0mm 52 W/m2
06:50 61.7 °F /  16.5 °C 59.7 °F /  15.4 °C 29.91in /  1012.8hPa West 1mph /  1.6km/h 2mph /  3.2km/h 93% 0.00in /  0mm 120 W/m2
07:00 62 °F /  16.7 °C 59.4 °F /  15.2 °C 29.91in /  1012.8hPa NNW 1mph /  1.6km/h 2mph /  3.2km/h 91% 0.00in /  0mm 280 W/m2
07:10 62.6 °F /  17 °C 59.6 °F /  15.3 °C 29.91in /  1012.8hPa West 1mph /  1.6km/h 3mph /  4.8km/h 90% 0.00in /  0mm 323 W/m2
07:20 63.1 °F /  17.3 °C 60.1 °F /  15.6 °C 29.91in /  1012.8hPa NW 1mph /  1.6km/h 2mph /  3.2km/h 90% 0.00in /  0mm 327 W/m2
07:30 63.7 °F /  17.6 °C 60.4 °F /  15.8 °C 29.91in /  1012.8hPa WSW 2mph /  3.2km/h 4mph /  6.4km/h 89% 0.00in /  0mm 326 W/m2
07:40 64 °F /  17.8 °C 60.4 °F /  15.8 °C 29.91in /  1012.8hPa West 1mph /  1.6km/h 3mph /  4.8km/h 88% 0.00in /  0mm 179 W/m2
07:50 64.6 °F /  18.1 °C 60 °F /  15.6 °C 29.91in /  1012.8hPa Calm   3mph /  4.8km/h 85% 0.00in /  0mm 427 W/m2
08:00 65.3 °F /  18.5 °C 60.3 °F /  15.7 °C 29.91in /  1012.8hPa ENE 1mph /  1.6km/h 2mph /  3.2km/h 84% 0.00in /  0mm 447 W/m2
08:10 66 °F /  18.9 °C 61.4 °F /  16.3 °C 29.91in /  1012.8hPa North 3mph /  4.8km/h 6mph /  9.7km/h 85% 0.00in /  0mm 448 W/m2
08:20 66.9 °F /  19.4 °C 61.9 °F /  16.6 °C 29.91in /  1012.8hPa North 1mph /  1.6km/h 4mph /  6.4km/h 84% 0.00in /  0mm 547 W/m2
08:30 67.8 °F /  19.9 °C 62.5 °F /  16.9 °C 29.91in /  1012.8hPa NNE 5mph /  8km/h 8mph /  12.9km/h 83% 0.00in /  0mm 576 W/m2
08:40 68.5 °F /  20.3 °C 62.1 °F /  16.7 °C 29.91in /  1012.8hPa NNE 2mph /  3.2km/h 6mph /  9.7km/h 80% 0.00in /  0mm 604 W/m2
08:50 69.4 °F /  20.8 °C 63 °F /  17.2 °C 29.91in /  1012.8hPa North 2mph /  3.2km/h 5mph /  8km/h 80% 0.00in /  0mm 632 W/m2
09:00 71.4 °F /  21.9 °C 63.8 °F /  17.7 °C 29.91in /  1012.8hPa North 1mph /  1.6km/h 5mph /  8km/h 77% 0.00in /  0mm 659 W/m2
09:10 73 °F /  22.8 °C 63.9 °F /  17.7 °C 29.91in /  1012.8hPa North 1mph /  1.6km/h 4mph /  6.4km/h 73% 0.00in /  0mm 367 W/m2
09:20 73.6 °F /  23.1 °C 64 °F /  17.8 °C 29.91in /  1012.8hPa NNE 1mph /  1.6km/h 3mph /  4.8km/h 72% 0.00in /  0mm 380 W/m2
09:30 73.9 °F /  23.3 °C 64.3 °F /  17.9 °C 29.90in /  1012.4hPa Calm   2mph /  3.2km/h 72% 0.00in /  0mm 455 W/m2
09:40 74.7 °F /  23.7 °C 65 °F /  18.3 °C 29.90in /  1012.4hPa SSW 2mph /  3.2km/h 3mph /  4.8km/h 72% 0.00in /  0mm 760 W/m2
09:50 76.5 °F /  24.7 °C 67.2 °F /  19.6 °C 29.90in /  1012.4hPa SW 1mph /  1.6km/h 5mph /  8km/h 73% 0.00in /  0mm 783 W/m2
10:00 78.1 °F /  25.6 °C 66.2 °F /  19 °C 29.90in /  1012.4hPa SE 3mph /  4.8km/h 5mph /  8km/h 67% 0.00in /  0mm 804 W/m2
10:10 79.3 °F /  26.3 °C 66.5 °F /  19.2 °C 29.90in /  1012.4hPa NE 2mph /  3.2km/h 6mph /  9.7km/h 65% 0.00in /  0mm 536 W/m2
10:20 79.7 °F /  26.5 °C 66.4 °F /  19.1 °C 29.90in /  1012.4hPa SSW 2mph /  3.2km/h 6mph /  9.7km/h 64% 0.00in /  0mm 623 W/m2
10:30 79.9 °F /  26.6 °C 66.2 °F /  19 °C 29.90in /  1012.4hPa South 2mph /  3.2km/h 7mph /  11.3km/h 63% 0.00in /  0mm 511 W/m2
10:40 79.7 °F /  26.5 °C 64.6 °F /  18.1 °C 29.90in /  1012.4hPa SW 7mph /  11.3km/h 12mph /  19.3km/h 60% 0.00in /  0mm 593 W/m2
10:50 79.7 °F /  26.5 °C 64.1 °F /  17.8 °C 29.90in /  1012.4hPa WSW 7mph /  11.3km/h 12mph /  19.3km/h 59% 0.00in /  0mm 515 W/m2
11:00 80.4 °F /  26.9 °C 65.3 °F /  18.5 °C 29.90in /  1012.4hPa SW 7mph /  11.3km/h 12mph /  19.3km/h 60% 0.00in /  0mm 909 W/m2
11:10 81 °F /  27.2 °C 64.8 °F /  18.2 °C 29.89in /  1012.1hPa SW 8mph /  12.9km/h 13mph /  20.9km/h 58% 0.00in /  0mm 922 W/m2
11:20 81.5 °F /  27.5 °C 65.3 °F /  18.5 °C 29.89in /  1012.1hPa SW 6mph /  9.7km/h 13mph /  20.9km/h 58% 0.00in /  0mm 759 W/m2
11:30 81.9 °F /  27.7 °C 66.1 °F /  18.9 °C 29.89in /  1012.1hPa SW 5mph /  8km/h 11mph /  17.7km/h 59% 0.00in /  0mm 655 W/m2
11:40 81.3 °F /  27.4 °C 66.1 °F /  18.9 °C 29.89in /  1012.1hPa WSW 3mph /  4.8km/h 8mph /  12.9km/h 60% 0.00in /  0mm 543 W/m2
11:50 81.1 °F /  27.3 °C 65.5 °F /  18.6 °C 29.89in /  1012.1hPa SW 5mph /  8km/h 8mph /  12.9km/h 59% 0.00in /  0mm 512 W/m2
12:00 81.9 °F /  27.7 °C 65.6 °F /  18.7 °C 29.89in /  1012.1hPa South 1mph /  1.6km/h 6mph /  9.7km/h 58% 0.00in /  0mm 965 W/m2
12:10 82.4 °F /  28 °C 66.1 °F /  18.9 °C 29.88in /  1011.7hPa SSE 3mph /  4.8km/h 7mph /  11.3km/h 58% 0.00in /  0mm 969 W/m2
12:20 83.3 °F /  28.5 °C 65.4 °F /  18.6 °C 29.88in /  1011.7hPa SSE 1mph /  1.6km/h 7mph /  11.3km/h 55% 0.00in /  0mm 570 W/m2
12:30 83.5 °F /  28.6 °C 66.7 °F /  19.3 °C 29.88in /  1011.7hPa SW 3mph /  4.8km/h 7mph /  11.3km/h 57% 0.00in /  0mm 362 W/m2
12:40 83.7 °F /  28.7 °C 66.8 °F /  19.3 °C 29.88in /  1011.7hPa West 2mph /  3.2km/h 5mph /  8km/h 57% 0.00in /  0mm 973 W/m2
12:50 84.6 °F /  29.2 °C 67.6 °F /  19.8 °C 29.88in /  1011.7hPa SSW 3mph /  4.8km/h 9mph /  14.5km/h 57% 0.00in /  0mm 969 W/m2
13:00 85.1 °F /  29.5 °C 66.6 °F /  19.2 °C 29.88in /  1011.7hPa SW 2mph /  3.2km/h 8mph /  12.9km/h 54% 0.00in /  0mm 616 W/m2
13:10 85.3 °F /  29.6 °C 66.2 °F /  19 °C 29.88in /  1011.7hPa SSW 2mph /  3.2km/h 8mph /  12.9km/h 53% 0.00in /  0mm 555 W/m2
13:20 84.7 °F /  29.3 °C 66.3 °F /  19.1 °C 29.88in /  1011.7hPa South 3mph /  4.8km/h 6mph /  9.7km/h 54% 0.00in /  0mm 957 W/m2
13:30 85.3 °F /  29.6 °C 66.2 °F /  19 °C 29.87in /  1011.4hPa SSE 2mph /  3.2km/h 6mph /  9.7km/h 53% 0.00in /  0mm 949 W/m2
13:40 85.6 °F /  29.8 °C 66.5 °F /  19.2 °C 29.87in /  1011.4hPa SSW 1mph /  1.6km/h 6mph /  9.7km/h 53% 0.00in /  0mm 409 W/m2
13:50 85.5 °F /  29.7 °C 66.4 °F /  19.1 °C 29.87in /  1011.4hPa East 1mph /  1.6km/h 6mph /  9.7km/h 53% 0.00in /  0mm 405 W/m2
14:00 85.1 °F /  29.5 °C 65.5 °F /  18.6 °C 29.87in /  1011.4hPa South 1mph /  1.6km/h 7mph /  11.3km/h 52% 0.00in /  0mm 239 W/m2
14:10 84.7 °F /  29.3 °C 65.7 °F /  18.7 °C 29.87in /  1011.4hPa Calm   3mph /  4.8km/h 53% 0.00in /  0mm 220 W/m2
14:20 84.6 °F /  29.2 °C 66.1 °F /  18.9 °C 29.87in /  1011.4hPa Calm   2mph /  3.2km/h 54% 0.00in /  0mm 592 W/m2
14:30 85.5 °F /  29.7 °C 68.5 °F /  20.3 °C 29.86in /  1011.1hPa NNW 2mph /  3.2km/h 5mph /  8km/h 57% 0.00in /  0mm 872 W/m2
14:40 85.5 °F /  29.7 °C 68.5 °F /  20.3 °C 29.86in /  1011.1hPa North 2mph /  3.2km/h 6mph /  9.7km/h 57% 0.00in /  0mm 326 W/m2
14:50 85.8 °F /  29.9 °C 67.3 °F /  19.6 °C 29.87in /  1011.4hPa North 2mph /  3.2km/h 6mph /  9.7km/h 54% 0.00in /  0mm 836 W/m2
15:00 85.6 °F /  29.8 °C 66.5 °F /  19.2 °C 29.87in /  1011.4hPa North 1mph /  1.6km/h 6mph /  9.7km/h 53% 0.00in /  0mm 143 W/m2
15:10 85.1 °F /  29.5 °C 67.1 °F /  19.5 °C 29.87in /  1011.4hPa North 2mph /  3.2km/h 4mph /  6.4km/h 55% 0.00in /  0mm 107 W/m2
15:20 84.2 °F /  29 °C 66.3 °F /  19.1 °C 29.88in /  1011.7hPa NNW 3mph /  4.8km/h 9mph /  14.5km/h 55% 0.00in /  0mm 100 W/m2
15:30 82.9 °F /  28.3 °C 67.1 °F /  19.5 °C 29.88in /  1011.7hPa NNW 5mph /  8km/h 10mph /  16.1km/h 59% 0.00in /  0mm 151 W/m2
15:40 81.3 °F /  27.4 °C 67.1 °F /  19.5 °C 29.89in /  1012.1hPa SW 5mph /  8km/h 13mph /  20.9km/h 62% 0.00in /  0mm 347 W/m2
15:50 81 °F /  27.2 °C 67.6 °F /  19.8 °C 29.89in /  1012.1hPa SW 3mph /  4.8km/h 8mph /  12.9km/h 64% 0.00in /  0mm 635 W/m2
16:00 81.3 °F /  27.4 °C 68.4 °F /  20.2 °C 29.89in /  1012.1hPa SW 5mph /  8km/h 8mph /  12.9km/h 65% 0.00in /  0mm 675 W/m2
16:10 81.3 °F /  27.4 °C 68.4 °F /  20.2 °C 29.89in /  1012.1hPa SW 6mph /  9.7km/h 12mph /  19.3km/h 65% 0.00in /  0mm 363 W/m2
16:20 80.5 °F /  26.9 °C 68.5 °F /  20.3 °C 29.88in /  1011.7hPa SW 6mph /  9.7km/h 8mph /  12.9km/h 67% 0.00in /  0mm 491 W/m2
16:30 80.6 °F /  27 °C 70.7 °F /  21.5 °C 29.88in /  1011.7hPa SSW 3mph /  4.8km/h 7mph /  11.3km/h 72% 0.00in /  0mm 593 W/m2
16:40 80.4 °F /  26.9 °C 67.6 °F /  19.8 °C 29.89in /  1012.1hPa SW 3mph /  4.8km/h 10mph /  16.1km/h 65% 0.00in /  0mm 270 W/m2
16:50 79.7 °F /  26.5 °C 67.8 °F /  19.9 °C 29.88in /  1011.7hPa WSW 5mph /  8km/h 8mph /  12.9km/h 67% 0.00in /  0mm 198 W/m2
17:00 79.5 °F /  26.4 °C 67.6 °F /  19.8 °C 29.89in /  1012.1hPa WSW 6mph /  9.7km/h 8mph /  12.9km/h 67% 0.00in /  0mm 182 W/m2
17:10 79.3 °F /  26.3 °C 66.5 °F /  19.2 °C 29.89in /  1012.1hPa WSW 5mph /  8km/h 11mph /  17.7km/h 65% 0.00in /  0mm 151 W/m2
17:20 79 °F /  26.1 °C 66.2 °F /  19 °C 29.89in /  1012.1hPa WSW 1mph /  1.6km/h 8mph /  12.9km/h 65% 0.00in /  0mm 130 W/m2
17:30 78.8 °F /  26 °C 66.9 °F /  19.4 °C 29.89in /  1012.1hPa WSW 1mph /  1.6km/h 5mph /  8km/h 67% 0.00in /  0mm 113 W/m2
17:40 78.6 °F /  25.9 °C 66.7 °F /  19.3 °C 29.89in /  1012.1hPa WSW 2mph /  3.2km/h 5mph /  8km/h 67% 0.00in /  0mm 110 W/m2
17:50 78.3 °F /  25.7 °C 66.4 °F /  19.1 °C 29.89in /  1012.1hPa WNW 1mph /  1.6km/h 4mph /  6.4km/h 67% 0.00in /  0mm 122 W/m2
Knjazevac, Serbia
Compliments of Weather Underground - 2 mb